Terminal Aerodrome Forecast
Issued by NWS

Home | Current Version | Previous Version | Text Only | Print | Product List | Glossary On
Versions: 1 2 3 4 5 6 7 8 9 10 11 12
000
FTUS43 KEAX 201720
TAFMKC
TAF
KMKC 201720Z 2018/2118 19012G22KT P6SM SCT029
     FM202200 22006KT P6SM BKN070
     FM210200 VRB05KT P6SM VCTS BKN060CB
      TEMPO 2104/2108 3SM -TSRA BKN030CB
     FM210800 14006KT P6SM VCTS BKN150CB
     FM211300 17008KT P6SM SCT050=

USA.gov is the U.S. government's official web portal to all federal, state and local government web resources and services.